This is the latest recevied weather packets stored in our database for station/object Ummendorf. If no packets are shown the sender has not sent any weather packets the latest 10 day(s).
| Time | Temp. | Humidity | Pressure | Rain* | Wind** | Luminosity | Snow |
|---|---|---|---|---|---|---|---|
| 1777690931 | 3.89° C | 58% | 1023.8 hPa | 0 mm | - | - | - |
| 1777689134 | 4.44° C | 57% | 1023.8 hPa | 0 mm | - | - | - |
| 1777687332 | 5° C | 56% | 1023.9 hPa | 0 mm | - | - | - |
| 1777685531 | 5.56° C | 56% | 1023.9 hPa | 0 mm | - | - | - |
| 1777683731 | 6.11° C | 55% | 1024.2 hPa | 0 mm | - | - | - |
| 1777681929 | 6.67° C | 54% | 1024.2 hPa | 0 mm | - | - | - |
| 1777680129 | 6.67° C | 53% | 1024.3 hPa | 0 mm | - | - | - |
| 1777678330 | 7.78° C | 52% | 1024.5 hPa | 0 mm | - | - | - |
| 1777676530 | 8.33° C | 51% | 1024.5 hPa | 0 mm | - | - | - |
| 1777674730 | 8.89° C | 51% | 1024.8 hPa | 0 mm | - | - | - |
| 1777671130 | 11.11° C | 45% | 1024.8 hPa | 0 mm | - | - | - |
| 1777669330 | 12.78° C | 40% | 1024.8 hPa | 0 mm | - | - | - |
| 1777667529 | 13.89° C | 36% | 1024.9 hPa | 0 mm | - | - | - |
| 1777665732 | 15° C | 32% | 1024.7 hPa | 0 mm | - | - | - |
| 1777663929 | 15.56° C | 31% | 1024.2 hPa | 0 mm | - | - | - |
| 1777662130 | 16.67° C | 28% | 1024.1 hPa | 0 mm | - | - | - |
| 1777660330 | 17.78° C | 25% | 1024.1 hPa | 0 mm | - | - | - |
| 1777658531 | 18.89° C | 23% | 1024 hPa | 0 mm | - | - | - |
| 1777656731 | 20° C | 21% | 1024 hPa | 0 mm | - | - | - |
| 1777654930 | 20.56° C | 19% | 1024 hPa | 0 mm | - | - | - |
| 1777653130 | 21.67° C | 18% | 1024.1 hPa | 0 mm | - | - | - |
| 1777651330 | 21.67° C | 18% | 1024.4 hPa | 0 mm | - | - | - |
| 1777649530 | 21.67° C | 15% | 1024.5 hPa | 0 mm | - | - | - |
| 1777647730 | 22.22° C | 15% | 1024.8 hPa | 0 mm | - | - | - |
| 1777645930 | 21.67° C | 15% | 1024.6 hPa | 0 mm | - | - | - |
* Rain since midnight (hover to see other rain measurements)
** Current wind speed in m/s (hover to see current wind gust speed)